sensor_id;sensor_type;location;lat;lon;timestamp;P1;durP1;ratioP1;P2;durP2;ratioP2
19762;SDS011;10040;42.614;23.164;2022-07-10T00:00:06;8.35;;;7.63;;
19762;SDS011;10040;42.614;23.164;2022-07-10T00:02:39;8.25;;;7.45;;
19762;SDS011;10040;42.614;23.164;2022-07-10T00:05:08;8.57;;;7.88;;
19762;SDS011;10040;42.614;23.164;2022-07-10T00:07:38;8.48;;;7.63;;
19762;SDS011;10040;42.614;23.164;2022-07-10T00:10:06;8.50;;;7.80;;
19762;SDS011;10040;42.614;23.164;2022-07-10T00:12:34;8.20;;;7.40;;
19762;SDS011;10040;42.614;23.164;2022-07-10T00:15:01;7.93;;;7.00;;
19762;SDS011;10040;42.614;23.164;2022-07-10T00:17:29;8.52;;;7.03;;
19762;SDS011;10040;42.614;23.164;2022-07-10T00:20:15;8.98;;;8.15;;
19762;SDS011;10040;42.614;23.164;2022-07-10T00:22:44;7.97;;;7.28;;
19762;SDS011;10040;42.614;23.164;2022-07-10T00:25:29;8.10;;;7.30;;
19762;SDS011;10040;42.614;23.164;2022-07-10T00:27:57;8.80;;;7.75;;
19762;SDS011;10040;42.614;23.164;2022-07-10T00:30:25;9.73;;;7.63;;
19762;SDS011;10040;42.614;23.164;2022-07-10T00:32:52;8.48;;;7.38;;
19762;SDS011;10040;42.614;23.164;2022-07-10T00:35:20;10.25;;;7.45;;
19762;SDS011;10040;42.614;23.164;2022-07-10T00:37:49;8.33;;;7.57;;
19762;SDS011;10040;42.614;23.164;2022-07-10T00:40:17;13.87;;;7.47;;
19762;SDS011;10040;42.614;23.164;2022-07-10T00:42:45;8.33;;;7.57;;
19762;SDS011;10040;42.614;23.164;2022-07-10T00:45:13;8.77;;;7.13;;
19762;SDS011;10040;42.614;23.164;2022-07-10T00:47:40;8.30;;;7.50;;
19762;SDS011;10040;42.614;23.164;2022-07-10T00:50:08;8.07;;;7.23;;
19762;SDS011;10040;42.614;23.164;2022-07-10T00:52:37;10.90;;;7.33;;
19762;SDS011;10040;42.614;23.164;2022-07-10T00:55:07;8.47;;;7.53;;
19762;SDS011;10040;42.614;23.164;2022-07-10T00:57:36;7.93;;;7.13;;
19762;SDS011;10040;42.614;23.164;2022-07-10T01:00:04;7.40;;;6.57;;
19762;SDS011;10040;42.614;23.164;2022-07-10T01:02:33;9.37;;;7.10;;
19762;SDS011;10040;42.614;23.164;2022-07-10T01:05:00;7.83;;;6.40;;
19762;SDS011;10040;42.614;23.164;2022-07-10T01:07:28;8.83;;;6.60;;
19762;SDS011;10040;42.614;23.164;2022-07-10T01:09:56;6.93;;;6.30;;
19762;SDS011;10040;42.614;23.164;2022-07-10T01:12:26;7.43;;;6.47;;
19762;SDS011;10040;42.614;23.164;2022-07-10T01:14:54;8.83;;;6.40;;
19762;SDS011;10040;42.614;23.164;2022-07-10T01:17:22;9.02;;;6.82;;
19762;SDS011;10040;42.614;23.164;2022-07-10T01:19:50;7.63;;;6.90;;
19762;SDS011;10040;42.614;23.164;2022-07-10T01:22:19;7.60;;;6.87;;
19762;SDS011;10040;42.614;23.164;2022-07-10T01:24:46;8.07;;;7.20;;
19762;SDS011;10040;42.614;23.164;2022-07-10T01:27:13;9.00;;;7.57;;
19762;SDS011;10040;42.614;23.164;2022-07-10T01:29:41;7.90;;;7.20;;
19762;SDS011;10040;42.614;23.164;2022-07-10T01:32:09;13.67;;;6.83;;
19762;SDS011;10040;42.614;23.164;2022-07-10T01:34:37;9.17;;;7.63;;
19762;SDS011;10040;42.614;23.164;2022-07-10T01:37:05;7.73;;;6.97;;
19762;SDS011;10040;42.614;23.164;2022-07-10T01:39:34;8.10;;;7.30;;
19762;SDS011;10040;42.614;23.164;2022-07-10T01:42:01;8.10;;;7.30;;
19762;SDS011;10040;42.614;23.164;2022-07-10T01:44:29;10.03;;;6.93;;
19762;SDS011;10040;42.614;23.164;2022-07-10T01:46:56;7.50;;;6.80;;
19762;SDS011;10040;42.614;23.164;2022-07-10T01:49:24;10.03;;;8.23;;
19762;SDS011;10040;42.614;23.164;2022-07-10T01:51:51;8.47;;;7.60;;
19762;SDS011;10040;42.614;23.164;2022-07-10T01:54:19;10.37;;;7.73;;
19762;SDS011;10040;42.614;23.164;2022-07-10T01:56:47;9.60;;;8.53;;
19762;SDS011;10040;42.614;23.164;2022-07-10T01:59:15;9.25;;;7.93;;
19762;SDS011;10040;42.614;23.164;2022-07-10T02:01:43;7.73;;;7.13;;
19762;SDS011;10040;42.614;23.164;2022-07-10T02:04:10;8.23;;;7.23;;
19762;SDS011;10040;42.614;23.164;2022-07-10T02:06:55;7.40;;;6.80;;
19762;SDS011;10040;42.614;23.164;2022-07-10T02:09:22;8.80;;;7.87;;
19762;SDS011;10040;42.614;23.164;2022-07-10T02:11:51;8.40;;;7.50;;
19762;SDS011;10040;42.614;23.164;2022-07-10T02:14:19;10.53;;;7.83;;
19762;SDS011;10040;42.614;23.164;2022-07-10T02:16:46;8.30;;;7.47;;
19762;SDS011;10040;42.614;23.164;2022-07-10T02:19:13;10.57;;;8.07;;
19762;SDS011;10040;42.614;23.164;2022-07-10T02:21:41;8.77;;;8.00;;
19762;SDS011;10040;42.614;23.164;2022-07-10T02:24:09;7.97;;;7.17;;
19762;SDS011;10040;42.614;23.164;2022-07-10T02:26:36;7.73;;;7.13;;
19762;SDS011;10040;42.614;23.164;2022-07-10T02:29:05;10.77;;;7.37;;
19762;SDS011;10040;42.614;23.164;2022-07-10T02:31:33;10.53;;;7.50;;
19762;SDS011;10040;42.614;23.164;2022-07-10T02:34:06;10.80;;;7.73;;
19762;SDS011;10040;42.614;23.164;2022-07-10T02:36:34;9.00;;;7.63;;
19762;SDS011;10040;42.614;23.164;2022-07-10T02:39:02;9.53;;;7.27;;
19762;SDS011;10040;42.614;23.164;2022-07-10T02:41:30;7.70;;;7.00;;
19762;SDS011;10040;42.614;23.164;2022-07-10T02:43:57;13.13;;;7.43;;
19762;SDS011;10040;42.614;23.164;2022-07-10T02:46:26;8.73;;;7.57;;
19762;SDS011;10040;42.614;23.164;2022-07-10T02:48:53;7.43;;;6.67;;
19762;SDS011;10040;42.614;23.164;2022-07-10T02:51:22;8.20;;;7.40;;
19762;SDS011;10040;42.614;23.164;2022-07-10T02:53:49;7.43;;;6.63;;
19762;SDS011;10040;42.614;23.164;2022-07-10T02:56:17;9.13;;;6.47;;
19762;SDS011;10040;42.614;23.164;2022-07-10T02:58:44;7.47;;;6.45;;
19762;SDS011;10040;42.614;23.164;2022-07-10T03:01:11;7.33;;;6.63;;
19762;SDS011;10040;42.614;23.164;2022-07-10T03:03:40;7.67;;;5.63;;
19762;SDS011;10040;42.614;23.164;2022-07-10T03:06:08;8.00;;;5.67;;
19762;SDS011;10040;42.614;23.164;2022-07-10T03:08:35;6.23;;;5.63;;
19762;SDS011;10040;42.614;23.164;2022-07-10T03:11:03;8.30;;;6.50;;
19762;SDS011;10040;42.614;23.164;2022-07-10T03:13:30;8.60;;;6.23;;
19762;SDS011;10040;42.614;23.164;2022-07-10T03:15:57;7.23;;;6.63;;
19762;SDS011;10040;42.614;23.164;2022-07-10T03:18:25;8.60;;;7.00;;
19762;SDS011;10040;42.614;23.164;2022-07-10T03:20:54;8.63;;;6.67;;
19762;SDS011;10040;42.614;23.164;2022-07-10T03:23:21;9.07;;;6.57;;
19762;SDS011;10040;42.614;23.164;2022-07-10T03:25:49;8.20;;;7.30;;
19762;SDS011;10040;42.614;23.164;2022-07-10T03:28:21;10.80;;;6.90;;
19762;SDS011;10040;42.614;23.164;2022-07-10T03:30:48;12.67;;;7.23;;
19762;SDS011;10040;42.614;23.164;2022-07-10T03:33:16;10.30;;;7.17;;
19762;SDS011;10040;42.614;23.164;2022-07-10T03:35:43;8.63;;;6.97;;
19762;SDS011;10040;42.614;23.164;2022-07-10T03:38:12;10.00;;;7.13;;
19762;SDS011;10040;42.614;23.164;2022-07-10T03:40:39;9.77;;;7.57;;
19762;SDS011;10040;42.614;23.164;2022-07-10T03:43:07;11.67;;;7.13;;
19762;SDS011;10040;42.614;23.164;2022-07-10T03:45:34;7.77;;;7.00;;
19762;SDS011;10040;42.614;23.164;2022-07-10T03:48:02;7.87;;;7.13;;
19762;SDS011;10040;42.614;23.164;2022-07-10T03:50:30;7.97;;;6.53;;
19762;SDS011;10040;42.614;23.164;2022-07-10T03:52:57;7.57;;;6.87;;
19762;SDS011;10040;42.614;23.164;2022-07-10T03:55:26;12.77;;;6.83;;
19762;SDS011;10040;42.614;23.164;2022-07-10T03:57:54;6.47;;;5.97;;
19762;SDS011;10040;42.614;23.164;2022-07-10T04:00:20;7.67;;;6.80;;
19762;SDS011;10040;42.614;23.164;2022-07-10T04:02:55;8.65;;;6.70;;
19762;SDS011;10040;42.614;23.164;2022-07-10T04:05:42;8.75;;;7.47;;
19762;SDS011;10040;42.614;23.164;2022-07-10T04:08:09;7.17;;;6.57;;
19762;SDS011;10040;42.614;23.164;2022-07-10T04:10:38;7.78;;;6.97;;
19762;SDS011;10040;42.614;23.164;2022-07-10T04:13:06;7.47;;;6.77;;
19762;SDS011;10040;42.614;23.164;2022-07-10T04:15:33;7.00;;;6.40;;
19762;SDS011;10040;42.614;23.164;2022-07-10T04:18:00;7.97;;;7.18;;
19762;SDS011;10040;42.614;23.164;2022-07-10T04:20:28;7.40;;;6.70;;
19762;SDS011;10040;42.614;23.164;2022-07-10T04:22:56;7.63;;;6.80;;
19762;SDS011;10040;42.614;23.164;2022-07-10T04:25:23;11.93;;;8.00;;
19762;SDS011;10040;42.614;23.164;2022-07-10T04:27:52;9.07;;;7.00;;
19762;SDS011;10040;42.614;23.164;2022-07-10T04:30:20;11.33;;;8.60;;
19762;SDS011;10040;42.614;23.164;2022-07-10T04:32:47;9.32;;;8.45;;
19762;SDS011;10040;42.614;23.164;2022-07-10T04:35:14;8.63;;;7.83;;
19762;SDS011;10040;42.614;23.164;2022-07-10T04:37:42;11.53;;;7.70;;
19762;SDS011;10040;42.614;23.164;2022-07-10T04:40:10;9.75;;;8.77;;
19762;SDS011;10040;42.614;23.164;2022-07-10T04:42:37;9.50;;;8.20;;
19762;SDS011;10040;42.614;23.164;2022-07-10T04:45:07;9.57;;;8.68;;
19762;SDS011;10040;42.614;23.164;2022-07-10T04:47:35;8.70;;;7.80;;
19762;SDS011;10040;42.614;23.164;2022-07-10T04:50:02;9.68;;;8.77;;
19762;SDS011;10040;42.614;23.164;2022-07-10T04:52:31;12.55;;;8.52;;
19762;SDS011;10040;42.614;23.164;2022-07-10T04:54:58;11.52;;;9.32;;
19762;SDS011;10040;42.614;23.164;2022-07-10T04:57:25;9.32;;;8.32;;
19762;SDS011;10040;42.614;23.164;2022-07-10T04:59:53;9.43;;;8.50;;
19762;SDS011;10040;42.614;23.164;2022-07-10T05:02:23;10.05;;;7.85;;
19762;SDS011;10040;42.614;23.164;2022-07-10T05:04:51;9.05;;;8.15;;
19762;SDS011;10040;42.614;23.164;2022-07-10T05:07:18;8.98;;;7.90;;
19762;SDS011;10040;42.614;23.164;2022-07-10T05:09:46;8.77;;;8.00;;
19762;SDS011;10040;42.614;23.164;2022-07-10T05:12:13;8.60;;;7.80;;
19762;SDS011;10040;42.614;23.164;2022-07-10T05:14:40;9.20;;;7.93;;
19762;SDS011;10040;42.614;23.164;2022-07-10T05:17:08;7.93;;;7.22;;
19762;SDS011;10040;42.614;23.164;2022-07-10T05:19:36;6.97;;;6.38;;
19762;SDS011;10040;42.614;23.164;2022-07-10T05:22:04;7.55;;;6.80;;
19762;SDS011;10040;42.614;23.164;2022-07-10T05:24:31;7.53;;;6.85;;
19762;SDS011;10040;42.614;23.164;2022-07-10T05:26:59;7.00;;;6.38;;
19762;SDS011;10040;42.614;23.164;2022-07-10T05:29:26;7.45;;;6.85;;
19762;SDS011;10040;42.614;23.164;2022-07-10T05:31:54;8.50;;;6.25;;
19762;SDS011;10040;42.614;23.164;2022-07-10T05:34:21;6.20;;;5.60;;
19762;SDS011;10040;42.614;23.164;2022-07-10T05:36:50;6.53;;;5.93;;
19762;SDS011;10040;42.614;23.164;2022-07-10T05:39:17;7.25;;;6.65;;
19762;SDS011;10040;42.614;23.164;2022-07-10T05:41:45;8.85;;;6.55;;
19762;SDS011;10040;42.614;23.164;2022-07-10T05:44:12;8.00;;;6.40;;
19762;SDS011;10040;42.614;23.164;2022-07-10T05:46:40;8.40;;;7.60;;
19762;SDS011;10040;42.614;23.164;2022-07-10T05:49:07;8.27;;;7.55;;
19762;SDS011;10040;42.614;23.164;2022-07-10T05:51:35;7.40;;;6.70;;
19762;SDS011;10040;42.614;23.164;2022-07-10T05:54:04;7.10;;;6.53;;
19762;SDS011;10040;42.614;23.164;2022-07-10T05:56:32;7.60;;;6.90;;
19762;SDS011;10040;42.614;23.164;2022-07-10T05:59:11;7.05;;;6.35;;
19762;SDS011;10040;42.614;23.164;2022-07-10T06:01:39;6.97;;;6.35;;
19762;SDS011;10040;42.614;23.164;2022-07-10T06:04:06;7.07;;;6.35;;
19762;SDS011;10040;42.614;23.164;2022-07-10T06:06:34;6.78;;;6.18;;
19762;SDS011;10040;42.614;23.164;2022-07-10T06:09:01;8.93;;;6.22;;
19762;SDS011;10040;42.614;23.164;2022-07-10T06:11:30;6.15;;;5.55;;
19762;SDS011;10040;42.614;23.164;2022-07-10T06:13:58;6.22;;;5.38;;
19762;SDS011;10040;42.614;23.164;2022-07-10T06:16:25;9.75;;;5.70;;
19762;SDS011;10040;42.614;23.164;2022-07-10T06:18:53;5.70;;;5.20;;
19762;SDS011;10040;42.614;23.164;2022-07-10T06:21:21;5.25;;;4.57;;
19762;SDS011;10040;42.614;23.164;2022-07-10T06:23:50;5.47;;;4.97;;
19762;SDS011;10040;42.614;23.164;2022-07-10T06:26:18;5.00;;;4.50;;
19762;SDS011;10040;42.614;23.164;2022-07-10T06:28:46;5.50;;;5.00;;
19762;SDS011;10040;42.614;23.164;2022-07-10T06:31:14;6.07;;;4.90;;
19762;SDS011;10040;42.614;23.164;2022-07-10T06:33:41;6.22;;;5.60;;
19762;SDS011;10040;42.614;23.164;2022-07-10T06:36:09;5.93;;;4.82;;
19762;SDS011;10040;42.614;23.164;2022-07-10T06:38:38;7.55;;;4.82;;
19762;SDS011;10040;42.614;23.164;2022-07-10T06:41:07;4.90;;;4.50;;
19762;SDS011;10040;42.614;23.164;2022-07-10T06:43:34;5.15;;;4.75;;
19762;SDS011;10040;42.614;23.164;2022-07-10T06:46:03;5.00;;;4.60;;
19762;SDS011;10040;42.614;23.164;2022-07-10T06:48:31;6.03;;;4.88;;
19762;SDS011;10040;42.614;23.164;2022-07-10T06:50:59;4.80;;;4.20;;
19762;SDS011;10040;42.614;23.164;2022-07-10T06:53:27;4.43;;;4.03;;
19762;SDS011;10040;42.614;23.164;2022-07-10T06:55:54;7.68;;;5.13;;
19762;SDS011;10040;42.614;23.164;2022-07-10T06:58:22;5.15;;;4.75;;
19762;SDS011;10040;42.614;23.164;2022-07-10T07:00:49;7.93;;;4.50;;
19762;SDS011;10040;42.614;23.164;2022-07-10T07:03:18;6.85;;;4.72;;
19762;SDS011;10040;42.614;23.164;2022-07-10T07:05:46;5.82;;;4.35;;
19762;SDS011;10040;42.614;23.164;2022-07-10T07:08:13;5.35;;;4.85;;
19762;SDS011;10040;42.614;23.164;2022-07-10T07:10:42;6.38;;;5.05;;
19762;SDS011;10040;42.614;23.164;2022-07-10T07:13:11;5.85;;;4.65;;
19762;SDS011;10040;42.614;23.164;2022-07-10T07:15:39;8.10;;;4.82;;
19762;SDS011;10040;42.614;23.164;2022-07-10T07:18:11;7.60;;;5.18;;
19762;SDS011;10040;42.614;23.164;2022-07-10T07:20:43;6.72;;;6.03;;
19762;SDS011;10040;42.614;23.164;2022-07-10T07:23:28;8.90;;;6.07;;
19762;SDS011;10040;42.614;23.164;2022-07-10T07:25:55;5.90;;;5.00;;
19762;SDS011;10040;42.614;23.164;2022-07-10T07:28:23;8.30;;;6.00;;
19762;SDS011;10040;42.614;23.164;2022-07-10T07:30:51;5.68;;;5.28;;
19762;SDS011;10040;42.614;23.164;2022-07-10T07:33:18;6.65;;;5.15;;
19762;SDS011;10040;42.614;23.164;2022-07-10T07:35:47;4.95;;;4.50;;
19762;SDS011;10040;42.614;23.164;2022-07-10T07:38:14;7.30;;;4.93;;
19762;SDS011;10040;42.614;23.164;2022-07-10T07:40:42;4.80;;;4.30;;
19762;SDS011;10040;42.614;23.164;2022-07-10T07:43:27;4.95;;;3.85;;
19762;SDS011;10040;42.614;23.164;2022-07-10T07:45:55;4.53;;;3.90;;
19762;SDS011;10040;42.614;23.164;2022-07-10T07:48:23;6.47;;;3.58;;
19762;SDS011;10040;42.614;23.164;2022-07-10T07:50:52;3.28;;;2.88;;
19762;SDS011;10040;42.614;23.164;2022-07-10T07:53:19;3.28;;;2.58;;
19762;SDS011;10040;42.614;23.164;2022-07-10T07:55:47;3.35;;;2.30;;
19762;SDS011;10040;42.614;23.164;2022-07-10T07:58:14;2.55;;;2.13;;
19762;SDS011;10040;42.614;23.164;2022-07-10T08:00:41;2.80;;;2.53;;
19762;SDS011;10040;42.614;23.164;2022-07-10T08:03:09;3.20;;;2.20;;
19762;SDS011;10040;42.614;23.164;2022-07-10T08:05:36;2.97;;;2.42;;
19762;SDS011;10040;42.614;23.164;2022-07-10T08:08:05;2.40;;;2.20;;
19762;SDS011;10040;42.614;23.164;2022-07-10T08:10:35;3.33;;;1.95;;
19762;SDS011;10040;42.614;23.164;2022-07-10T08:13:03;3.90;;;2.30;;
19762;SDS011;10040;42.614;23.164;2022-07-10T08:15:31;2.90;;;2.30;;
19762;SDS011;10040;42.614;23.164;2022-07-10T08:18:00;4.57;;;2.30;;
19762;SDS011;10040;42.614;23.164;2022-07-10T08:20:30;4.15;;;2.20;;
19762;SDS011;10040;42.614;23.164;2022-07-10T08:22:57;4.85;;;1.90;;
19762;SDS011;10040;42.614;23.164;2022-07-10T08:25:26;5.35;;;1.90;;
19762;SDS011;10040;42.614;23.164;2022-07-10T08:27:59;2.97;;;2.45;;
19762;SDS011;10040;42.614;23.164;2022-07-10T08:30:27;5.72;;;2.60;;
19762;SDS011;10040;42.614;23.164;2022-07-10T08:32:55;2.97;;;2.13;;
19762;SDS011;10040;42.614;23.164;2022-07-10T08:35:23;2.08;;;1.80;;
19762;SDS011;10040;42.614;23.164;2022-07-10T08:37:50;2.40;;;2.10;;
19762;SDS011;10040;42.614;23.164;2022-07-10T08:40:19;3.85;;;2.22;;
19762;SDS011;10040;42.614;23.164;2022-07-10T08:42:50;4.78;;;2.17;;
19762;SDS011;10040;42.614;23.164;2022-07-10T08:45:18;2.60;;;2.20;;
19762;SDS011;10040;42.614;23.164;2022-07-10T08:47:45;5.88;;;2.58;;
19762;SDS011;10040;42.614;23.164;2022-07-10T08:50:15;2.58;;;2.28;;
19762;SDS011;10040;42.614;23.164;2022-07-10T08:52:48;4.57;;;2.33;;
19762;SDS011;10040;42.614;23.164;2022-07-10T08:55:23;2.63;;;2.17;;
19762;SDS011;10040;42.614;23.164;2022-07-10T08:57:52;3.50;;;2.63;;
19762;SDS011;10040;42.614;23.164;2022-07-10T09:00:21;2.97;;;2.10;;
19762;SDS011;10040;42.614;23.164;2022-07-10T09:02:49;4.65;;;2.30;;
19762;SDS011;10040;42.614;23.164;2022-07-10T09:05:16;5.38;;;2.75;;
19762;SDS011;10040;42.614;23.164;2022-07-10T09:07:45;3.17;;;2.53;;
19762;SDS011;10040;42.614;23.164;2022-07-10T09:10:12;5.25;;;2.40;;
19762;SDS011;10040;42.614;23.164;2022-07-10T09:12:50;2.58;;;2.10;;
19762;SDS011;10040;42.614;23.164;2022-07-10T09:15:21;1.95;;;1.83;;
19762;SDS011;10040;42.614;23.164;2022-07-10T09:17:51;2.58;;;2.15;;
19762;SDS011;10040;42.614;23.164;2022-07-10T09:20:30;2.50;;;2.13;;
19762;SDS011;10040;42.614;23.164;2022-07-10T09:23:02;2.92;;;1.80;;
19762;SDS011;10040;42.614;23.164;2022-07-10T09:25:41;4.75;;;2.25;;
19762;SDS011;10040;42.614;23.164;2022-07-10T09:28:10;2.47;;;1.95;;
19762;SDS011;10040;42.614;23.164;2022-07-10T09:30:39;3.30;;;2.28;;
19762;SDS011;10040;42.614;23.164;2022-07-10T09:33:20;2.10;;;1.90;;
19762;SDS011;10040;42.614;23.164;2022-07-10T09:36:00;6.07;;;1.90;;
19762;SDS011;10040;42.614;23.164;2022-07-10T09:38:53;2.38;;;2.17;;
19762;SDS011;10040;42.614;23.164;2022-07-10T09:41:24;5.43;;;2.22;;
19762;SDS011;10040;42.614;23.164;2022-07-10T09:43:54;2.92;;;2.30;;
19762;SDS011;10040;42.614;23.164;2022-07-10T09:46:25;5.13;;;2.25;;
19762;SDS011;10040;42.614;23.164;2022-07-10T09:51:42;3.35;;;2.05;;
19762;SDS011;10040;42.614;23.164;2022-07-10T09:54:11;4.72;;;2.20;;
19762;SDS011;10040;42.614;23.164;2022-07-10T09:56:40;2.78;;;2.20;;
19762;SDS011;10040;42.614;23.164;2022-07-10T09:59:10;2.40;;;1.88;;
19762;SDS011;10040;42.614;23.164;2022-07-10T10:01:43;2.42;;;2.00;;
19762;SDS011;10040;42.614;23.164;2022-07-10T10:04:13;5.53;;;2.10;;
19762;SDS011;10040;42.614;23.164;2022-07-10T10:06:41;4.15;;;2.08;;
19762;SDS011;10040;42.614;23.164;2022-07-10T10:09:12;3.70;;;2.28;;
19762;SDS011;10040;42.614;23.164;2022-07-10T10:11:43;3.00;;;2.05;;
19762;SDS011;10040;42.614;23.164;2022-07-10T10:14:15;3.63;;;2.15;;
19762;SDS011;10040;42.614;23.164;2022-07-10T10:16:45;2.40;;;2.22;;
19762;SDS011;10040;42.614;23.164;2022-07-10T10:19:15;4.72;;;2.15;;
19762;SDS011;10040;42.614;23.164;2022-07-10T10:22:02;2.85;;;1.98;;
19762;SDS011;10040;42.614;23.164;2022-07-10T10:24:31;3.00;;;1.95;;
19762;SDS011;10040;42.614;23.164;2022-07-10T10:26:59;3.08;;;1.88;;
19762;SDS011;10040;42.614;23.164;2022-07-10T10:29:29;3.03;;;1.98;;
19762;SDS011;10040;42.614;23.164;2022-07-10T10:31:57;4.55;;;2.20;;
19762;SDS011;10040;42.614;23.164;2022-07-10T10:34:37;2.40;;;2.20;;
19762;SDS011;10040;42.614;23.164;2022-07-10T10:37:14;2.90;;;2.13;;
19762;SDS011;10040;42.614;23.164;2022-07-10T10:40:00;5.72;;;2.20;;
19762;SDS011;10040;42.614;23.164;2022-07-10T10:42:32;4.40;;;2.00;;
19762;SDS011;10040;42.614;23.164;2022-07-10T10:48:04;2.08;;;1.70;;
19762;SDS011;10040;42.614;23.164;2022-07-10T10:50:38;2.67;;;2.00;;
19762;SDS011;10040;42.614;23.164;2022-07-10T10:53:11;3.10;;;1.90;;
19762;SDS011;10040;42.614;23.164;2022-07-10T10:55:40;5.55;;;1.95;;
19762;SDS011;10040;42.614;23.164;2022-07-10T10:58:11;3.78;;;1.70;;
19762;SDS011;10040;42.614;23.164;2022-07-10T11:00:43;3.28;;;2.22;;
19762;SDS011;10040;42.614;23.164;2022-07-10T11:03:15;2.85;;;1.92;;
19762;SDS011;10040;42.614;23.164;2022-07-10T11:05:44;5.95;;;1.75;;
19762;SDS011;10040;42.614;23.164;2022-07-10T11:08:13;5.07;;;1.77;;
19762;SDS011;10040;42.614;23.164;2022-07-10T11:10:42;3.58;;;2.05;;
19762;SDS011;10040;42.614;23.164;2022-07-10T11:13:10;3.30;;;1.92;;
19762;SDS011;10040;42.614;23.164;2022-07-10T11:15:39;3.08;;;1.65;;
19762;SDS011;10040;42.614;23.164;2022-07-10T11:18:12;2.80;;;1.70;;
19762;SDS011;10040;42.614;23.164;2022-07-10T11:20:41;2.25;;;1.70;;
19762;SDS011;10040;42.614;23.164;2022-07-10T11:23:34;5.43;;;1.90;;
19762;SDS011;10040;42.614;23.164;2022-07-10T11:26:17;3.67;;;1.70;;
19762;SDS011;10040;42.614;23.164;2022-07-10T11:28:50;3.58;;;1.83;;
19762;SDS011;10040;42.614;23.164;2022-07-10T11:31:19;4.05;;;1.88;;
19762;SDS011;10040;42.614;23.164;2022-07-10T11:33:50;2.70;;;2.00;;
19762;SDS011;10040;42.614;23.164;2022-07-10T11:36:38;2.15;;;1.95;;
19762;SDS011;10040;42.614;23.164;2022-07-10T11:39:07;6.28;;;1.70;;
19762;SDS011;10040;42.614;23.164;2022-07-10T11:41:42;2.35;;;1.67;;
19762;SDS011;10040;42.614;23.164;2022-07-10T11:44:13;1.70;;;1.60;;
19762;SDS011;10040;42.614;23.164;2022-07-10T11:46:42;4.50;;;1.50;;
19762;SDS011;10040;42.614;23.164;2022-07-10T11:49:13;3.08;;;1.80;;
19762;SDS011;10040;42.614;23.164;2022-07-10T11:51:41;2.45;;;1.70;;
19762;SDS011;10040;42.614;23.164;2022-07-10T11:54:11;5.60;;;1.58;;
19762;SDS011;10040;42.614;23.164;2022-07-10T11:56:42;3.53;;;1.50;;
19762;SDS011;10040;42.614;23.164;2022-07-10T11:59:13;4.05;;;1.70;;
19762;SDS011;10040;42.614;23.164;2022-07-10T12:01:42;1.58;;;1.48;;
19762;SDS011;10040;42.614;23.164;2022-07-10T12:04:11;4.22;;;1.50;;
19762;SDS011;10040;42.614;23.164;2022-07-10T12:06:41;3.05;;;1.60;;
19762;SDS011;10040;42.614;23.164;2022-07-10T12:09:10;3.90;;;1.65;;
19762;SDS011;10040;42.614;23.164;2022-07-10T12:11:39;2.47;;;1.60;;
19762;SDS011;10040;42.614;23.164;2022-07-10T12:14:09;2.63;;;1.50;;
19762;SDS011;10040;42.614;23.164;2022-07-10T12:16:40;2.22;;;1.60;;
19762;SDS011;10040;42.614;23.164;2022-07-10T12:19:10;2.65;;;1.65;;
19762;SDS011;10040;42.614;23.164;2022-07-10T12:21:40;3.55;;;1.60;;
19762;SDS011;10040;42.614;23.164;2022-07-10T12:24:09;1.80;;;1.33;;
19762;SDS011;10040;42.614;23.164;2022-07-10T12:26:39;3.25;;;1.70;;
19762;SDS011;10040;42.614;23.164;2022-07-10T12:29:11;4.53;;;1.60;;
19762;SDS011;10040;42.614;23.164;2022-07-10T12:31:47;4.60;;;1.98;;
19762;SDS011;10040;42.614;23.164;2022-07-10T12:34:16;3.35;;;1.60;;
19762;SDS011;10040;42.614;23.164;2022-07-10T12:36:47;4.05;;;1.65;;
19762;SDS011;10040;42.614;23.164;2022-07-10T12:39:16;2.40;;;1.58;;
19762;SDS011;10040;42.614;23.164;2022-07-10T12:41:58;1.63;;;1.42;;
19762;SDS011;10040;42.614;23.164;2022-07-10T12:44:34;3.85;;;1.60;;
19762;SDS011;10040;42.614;23.164;2022-07-10T12:47:03;5.68;;;1.60;;
19762;SDS011;10040;42.614;23.164;2022-07-10T12:49:47;2.45;;;1.40;;
19762;SDS011;10040;42.614;23.164;2022-07-10T12:52:20;3.50;;;1.30;;
19762;SDS011;10040;42.614;23.164;2022-07-10T12:55:04;5.22;;;1.70;;
19762;SDS011;10040;42.614;23.164;2022-07-10T12:57:32;3.05;;;1.33;;
19762;SDS011;10040;42.614;23.164;2022-07-10T13:00:29;2.85;;;1.40;;
19762;SDS011;10040;42.614;23.164;2022-07-10T13:03:00;1.38;;;1.27;;
19762;SDS011;10040;42.614;23.164;2022-07-10T13:05:29;2.90;;;1.10;;
19762;SDS011;10040;42.614;23.164;2022-07-10T13:08:06;1.83;;;1.20;;
19762;SDS011;10040;42.614;23.164;2022-07-10T13:10:36;1.73;;;1.10;;
19762;SDS011;10040;42.614;23.164;2022-07-10T13:13:05;3.75;;;1.30;;
19762;SDS011;10040;42.614;23.164;2022-07-10T13:15:33;4.18;;;1.23;;
19762;SDS011;10040;42.614;23.164;2022-07-10T13:18:05;6.18;;;3.33;;
19762;SDS011;10040;42.614;23.164;2022-07-10T13:20:33;3.75;;;1.92;;
19762;SDS011;10040;42.614;23.164;2022-07-10T13:23:01;4.20;;;1.33;;
19762;SDS011;10040;42.614;23.164;2022-07-10T13:25:30;3.33;;;1.67;;
19762;SDS011;10040;42.614;23.164;2022-07-10T13:27:57;4.85;;;2.17;;
19762;SDS011;10040;42.614;23.164;2022-07-10T13:30:26;3.75;;;1.95;;
19762;SDS011;10040;42.614;23.164;2022-07-10T13:32:54;5.07;;;2.65;;
19762;SDS011;10040;42.614;23.164;2022-07-10T13:35:21;1.45;;;1.05;;
19762;SDS011;10040;42.614;23.164;2022-07-10T13:37:49;2.13;;;1.30;;
19762;SDS011;10040;42.614;23.164;2022-07-10T13:40:16;5.63;;;1.40;;
19762;SDS011;10040;42.614;23.164;2022-07-10T13:42:46;1.50;;;1.20;;
19762;SDS011;10040;42.614;23.164;2022-07-10T13:45:14;3.60;;;1.60;;
19762;SDS011;10040;42.614;23.164;2022-07-10T13:47:41;2.33;;;1.00;;
19762;SDS011;10040;42.614;23.164;2022-07-10T13:50:09;2.58;;;1.30;;
19762;SDS011;10040;42.614;23.164;2022-07-10T13:52:36;2.85;;;1.30;;
19762;SDS011;10040;42.614;23.164;2022-07-10T13:55:04;3.17;;;1.20;;
19762;SDS011;10040;42.614;23.164;2022-07-10T13:57:32;2.22;;;1.30;;
19762;SDS011;10040;42.614;23.164;2022-07-10T14:00:01;2.10;;;1.10;;
19762;SDS011;10040;42.614;23.164;2022-07-10T14:02:47;3.78;;;1.25;;
19762;SDS011;10040;42.614;23.164;2022-07-10T14:05:15;5.80;;;1.45;;
19762;SDS011;10040;42.614;23.164;2022-07-10T14:07:42;2.10;;;1.55;;
19762;SDS011;10040;42.614;23.164;2022-07-10T14:10:10;3.97;;;1.67;;
19762;SDS011;10040;42.614;23.164;2022-07-10T14:12:37;3.53;;;1.58;;
19762;SDS011;10040;42.614;23.164;2022-07-10T14:15:07;1.60;;;1.35;;
19762;SDS011;10040;42.614;23.164;2022-07-10T14:17:35;1.85;;;1.10;;
19762;SDS011;10040;42.614;23.164;2022-07-10T14:20:03;1.90;;;1.20;;
19762;SDS011;10040;42.614;23.164;2022-07-10T14:22:31;3.60;;;1.10;;
19762;SDS011;10040;42.614;23.164;2022-07-10T14:24:58;1.67;;;1.00;;
19762;SDS011;10040;42.614;23.164;2022-07-10T14:27:26;3.85;;;1.17;;
19762;SDS011;10040;42.614;23.164;2022-07-10T14:29:54;2.00;;;1.00;;
19762;SDS011;10040;42.614;23.164;2022-07-10T14:32:23;2.03;;;1.17;;
19762;SDS011;10040;42.614;23.164;2022-07-10T14:34:51;2.88;;;1.10;;
19762;SDS011;10040;42.614;23.164;2022-07-10T14:37:19;1.35;;;0.88;;
19762;SDS011;10040;42.614;23.164;2022-07-10T14:39:47;1.23;;;0.93;;
19762;SDS011;10040;42.614;23.164;2022-07-10T14:42:15;2.72;;;1.15;;
19762;SDS011;10040;42.614;23.164;2022-07-10T14:44:42;3.05;;;1.15;;
19762;SDS011;10040;42.614;23.164;2022-07-10T14:47:09;1.95;;;1.30;;
19762;SDS011;10040;42.614;23.164;2022-07-10T14:49:38;1.10;;;1.00;;
19762;SDS011;10040;42.614;23.164;2022-07-10T14:52:06;2.10;;;1.02;;